Weather at Bridle Ridge Airport

Public forecast

Using degrees Fahrenheit for public forecast. Weather courtesy of forecast.io.

Closest aviation weather report (METAR) to Bridle Ridge Airport

Closest report is Easterwood Field, 17.9 nm (33.2 km) NW. Retrieved 2020/09/20 09:53 UTC (50 minutes ago):

KCLL 200953Z AUTO 03009KT 10SM CLR 18/14 A3003 RMK AO2 SLP166 T01780139

Closest aviation forecast (TAF) to Bridle Ridge Airport

Closest forecast is Easterwood Field, 17.9 nm (33.2 km) NW. Retrieved 2020/09/20 06:27 UTC (4 hours ago):

TAF KCLL 200525Z 2006/2106 03010KT P6SM FEW060 FM201200 02011KT P6SM SCT050 FM201800 02013KT P6SM SCT015 BKN025 FM210000 04011KT 5SM SHRA BR SCT007 BKN015